Time;durP1;ratioP1;P1;durP2;ratioP2;P2;SDS_P1;SDS_P2;PMS_P1;PMS_P2;Temp;Humidity;BMP_temperature;BMP_pressure;BME280_temperature;BME280_humidity;BME280_pressure;Samples;Min_cycle;Max_cycle;Signal;HPM_P1;HPM_P2
2023/05/20 00:02:26;;;;;;;3.22;2.53;;;;;;;13.59;80.09;100765.66;5134736;28;20051;-85
2023/05/20 00:04:52;;;;;;;2.92;2.30;;;;;;;13.64;80.18;100783.09;5095034;28;20051;-86
2023/05/20 00:07:19;;;;;;;4.47;2.42;;;;;;;13.75;81.23;100793.16;5103931;28;20050;-86
2023/05/20 00:09:51;;;;;;;3.58;2.38;;;;;;;13.75;81.21;100776.31;5114813;28;20058;-85
2023/05/20 00:12:19;;;;;;;5.70;2.67;;;;;;;13.79;81.37;100793.84;5129998;28;20063;-86
2023/05/20 00:14:48;;;;;;;3.63;2.33;;;;;;;13.80;81.68;100784.94;5110549;28;20043;-85
2023/05/20 00:17:21;;;;;;;6.30;2.40;;;;;;;13.79;82.36;100792.06;5110072;28;20040;-85
2023/05/20 00:19:49;;;;;;;3.10;2.28;;;;;;;13.70;82.52;100774.75;5134334;28;20047;-84
2023/05/20 00:22:16;;;;;;;4.78;2.45;;;;;;;13.64;82.54;100761.81;5130446;28;20047;-85
2023/05/20 00:24:42;;;;;;;2.80;2.55;;;;;;;13.79;83.28;100777.88;5088293;28;20043;-86
2023/05/20 00:27:10;;;;;;;7.13;2.38;;;;;;;13.79;84.15;100775.22;5121906;28;20048;-86
2023/05/20 00:29:37;;;;;;;3.95;2.40;;;;;;;13.78;83.80;100776.16;5122210;28;20067;-86
2023/05/20 00:32:04;;;;;;;4.25;2.25;;;;;;;13.77;83.84;100782.44;5104265;28;20131;-86
2023/05/20 00:34:31;;;;;;;2.72;2.33;;;;;;;13.75;84.60;100776.31;5104223;28;20130;-86
2023/05/20 00:36:58;;;;;;;3.03;2.30;;;;;;;13.75;85.48;100779.00;5104735;28;20068;-86
2023/05/20 00:39:29;;;;;;;3.45;2.78;;;;;;;13.73;86.02;100775.53;5121274;28;20044;-86
2023/05/20 00:41:59;;;;;;;3.50;3.15;;;;;;;13.55;86.27;100748.13;5122376;28;20050;-86
2023/05/20 00:44:27;;;;;;;;;;;;;;;13.68;86.99;100771.34;5089103;28;20036;-87
2023/05/20 00:46:54;;;;;;;4.35;2.90;;;;;;;13.52;87.92;100749.16;5105403;28;19916;-86
2023/05/20 00:49:22;;;;;;;3.10;2.58;;;;;;;13.55;88.59;100764.94;5105224;28;20100;-86
2023/05/20 00:51:50;;;;;;;4.40;2.85;;;;;;;13.49;89.47;100761.75;5103224;28;20092;-86
2023/05/20 00:54:20;;;;;;;3.33;2.58;;;;;;;13.52;89.85;100774.91;5104141;28;20456;-84
2023/05/20 00:56:48;;;;;;;3.85;2.72;;;;;;;13.47;90.56;100769.81;5122142;28;20065;-87
2023/05/20 00:59:15;;;;;;;3.72;2.58;;;;;;;13.40;91.31;100771.06;5104084;28;20048;-87
2023/05/20 01:01:44;;;;;;;3.30;2.55;;;;;;;13.39;92.06;100768.50;5104851;28;20043;-86
2023/05/20 01:04:12;;;;;;;6.82;2.55;;;;;;;13.36;92.47;100768.69;5108613;28;20061;-86
2023/05/20 01:06:40;;;;;;;3.60;2.67;;;;;;;13.32;93.33;100770.63;5106327;28;20050;-87
2023/05/20 01:09:07;;;;;;;4.47;2.50;;;;;;;13.22;94.10;100756.09;5088362;28;20043;-86
2023/05/20 01:11:51;;;;;;;4.20;3.20;;;;;;;13.15;94.77;100749.38;5105088;28;20453;-87
2023/05/20 01:14:21;;;;;;;3.20;2.80;;;;;;;13.19;95.26;100767.75;5105934;28;20048;-86
2023/05/20 01:16:51;;;;;;;3.13;2.58;;;;;;;13.12;96.30;100762.78;5107692;28;20047;-86
2023/05/20 01:19:32;;;;;;;3.55;2.63;;;;;;;13.12;96.58;100766.31;5109554;28;20052;-86
2023/05/20 01:22:04;;;;;;;3.13;2.65;;;;;;;13.09;96.80;100763.81;5103365;28;20372;-87
2023/05/20 01:24:32;;;;;;;2.97;2.67;;;;;;;13.06;97.64;100760.47;5103621;28;20062;-87
2023/05/20 01:26:59;;;;;;;3.80;2.55;;;;;;;12.94;97.88;100744.19;5104633;28;20093;-87
2023/05/20 01:29:26;;;;;;;3.75;2.70;;;;;;;13.04;99.02;100762.34;5086532;28;20472;-87
2023/05/20 01:31:55;;;;;;;4.65;3.00;;;;;;;12.96;99.43;100747.63;5125337;28;20076;-87
2023/05/20 01:34:24;;;;;;;4.13;2.55;;;;;;;12.75;100.00;100719.47;5111194;28;20039;-86
2023/05/20 01:36:53;;;;;;;5.55;3.00;;;;;;;12.92;100.00;100759.34;5107349;28;20101;-87
2023/05/20 01:39:20;;;;;;;3.83;2.78;;;;;;;12.75;100.00;100726.63;5103273;28;20054;-87
2023/05/20 01:41:50;;;;;;;3.92;2.85;;;;;;;12.70;100.00;100729.50;5100074;28;20044;-87
2023/05/20 01:44:23;;;;;;;4.47;2.80;;;;;;;12.83;100.00;100754.50;5120615;28;20384;-87
2023/05/20 01:47:04;;;;;;;4.43;2.88;;;;;;;12.78;100.00;100739.72;5120150;28;20048;-86
2023/05/20 01:49:32;;;;;;;5.63;2.90;;;;;;;12.68;100.00;100738.47;5120800;28;20368;-87
2023/05/20 01:51:59;;;;;;;6.53;3.28;;;;;;;12.70;100.00;100745.44;5101557;28;20052;-85
2023/05/20 01:54:25;;;;;;;4.30;2.85;;;;;;;12.70;100.00;100732.16;5101230;28;20124;-86
2023/05/20 01:56:52;;;;;;;5.88;3.10;;;;;;;12.77;100.00;100741.50;5102392;28;20475;-86
2023/05/20 01:59:19;;;;;;;5.03;3.00;;;;;;;12.69;100.00;100721.59;5122289;28;20051;-86
2023/05/20 02:01:49;;;;;;;3.78;2.95;;;;;;;12.76;100.00;100723.84;5104818;28;20059;-86
2023/05/20 02:04:17;;;;;;;5.50;2.92;;;;;;;12.77;100.00;100730.03;5105535;28;20391;-87
2023/05/20 02:06:55;;;;;;;5.55;2.90;;;;;;;12.73;100.00;100721.38;5107646;28;20047;-87
2023/05/20 02:09:23;;;;;;;4.05;2.90;;;;;;;12.84;100.00;100719.03;5106306;28;20078;-86
2023/05/20 02:11:50;;;;;;;4.97;2.97;;;;;;;12.73;100.00;100705.44;5123386;28;20130;-86
2023/05/20 02:14:18;;;;;;;4.53;2.67;;;;;;;12.82;100.00;100725.34;5089470;28;20044;-86
2023/05/20 02:16:46;;;;;;;3.65;2.88;;;;;;;12.81;100.00;100729.81;5105953;28;20071;-87
2023/05/20 02:19:18;;;;;;;4.03;2.97;;;;;;;12.80;100.00;100728.06;5110707;28;20043;-86
2023/05/20 02:21:47;;;;;;;4.13;3.20;;;;;;;12.71;100.00;100717.94;5122340;28;20074;-86
2023/05/20 02:24:20;;;;;;;4.35;3.05;;;;;;;12.61;100.00;100695.41;5109284;28;20462;-87
2023/05/20 02:26:50;;;;;;;4.55;3.30;;;;;;;12.77;100.00;100717.59;5124508;28;20036;-87
2023/05/20 02:29:16;;;;;;;5.37;4.60;;;;;;;12.79;100.00;100718.38;5106921;28;20463;-87
2023/05/20 02:31:43;;;;;;;5.25;3.15;;;;;;;12.80;100.00;100717.44;5107111;28;20139;-87
2023/05/20 02:34:10;;;;;;;6.50;2.90;;;;;;;12.78;100.00;100718.47;5107363;28;20131;-87
2023/05/20 02:36:43;;;;;;;4.35;3.10;;;;;;;12.81;100.00;100713.84;5126772;28;20067;-87
2023/05/20 02:39:11;;;;;;;4.95;3.50;;;;;;;12.75;100.00;100705.34;5108787;28;20082;-87
2023/05/20 02:41:51;;;;;;;5.10;3.25;;;;;;;12.84;100.00;100720.81;5109926;28;20054;-87
2023/05/20 02:44:18;;;;;;;6.25;2.95;;;;;;;12.93;100.00;100718.53;5107422;28;20043;-87
2023/05/20 02:46:46;;;;;;;3.83;2.75;;;;;;;12.90;100.00;100726.69;5125254;28;20381;-87
2023/05/20 02:49:16;;;;;;;4.05;3.17;;;;;;;12.94;100.00;100728.22;5109503;28;20046;-86
2023/05/20 02:51:45;;;;;;;6.93;3.10;;;;;;;12.99;100.00;100726.22;5108395;28;20043;-86
2023/05/20 02:54:13;;;;;;;5.13;3.30;;;;;;;13.00;100.00;100719.94;5097990;28;20108;-86
2023/05/20 02:56:42;;;;;;;4.32;3.10;;;;;;;13.02;100.00;100727.84;5140732;28;20046;-86
2023/05/20 02:59:09;;;;;;;4.57;3.30;;;;;;;13.03;100.00;100724.25;5123131;28;20047;-86
2023/05/20 03:01:39;;;;;;;6.63;3.50;;;;;;;13.13;100.00;100728.16;5105667;28;20036;-86
2023/05/20 03:04:07;;;;;;;4.45;3.35;;;;;;;13.00;100.00;100690.72;5135149;28;20051;-86
2023/05/20 03:06:37;;;;;;;6.30;3.38;;;;;;;13.10;100.00;100706.16;5131635;28;20048;-85
2023/05/20 03:09:04;;;;;;;3.97;3.40;;;;;;;13.12;100.00;100696.31;5109604;28;20047;-86
2023/05/20 03:11:31;;;;;;;4.10;3.30;;;;;;;13.26;100.00;100718.63;5107303;28;20039;-86
2023/05/20 03:14:01;;;;;;;4.63;3.40;;;;;;;13.08;100.00;100663.72;5091322;28;20046;-85
2023/05/20 03:16:28;;;;;;;5.53;3.35;;;;;;;13.32;100.00;100696.16;5108688;28;20051;-85
2023/05/20 03:18:55;;;;;;;4.95;3.78;;;;;;;13.24;100.00;100690.38;5127709;28;20118;-85
2023/05/20 03:21:25;;;;;;;4.68;3.42;;;;;;;13.34;100.00;100705.78;5095286;28;20365;-85
2023/05/20 03:23:52;;;;;;;6.55;3.47;;;;;;;13.18;100.00;100669.44;5110045;28;20150;-85
2023/05/20 03:26:24;;;;;;;5.07;3.58;;;;;;;13.32;100.00;100691.69;5109283;28;20048;-86
2023/05/20 03:28:52;;;;;;;4.07;3.50;;;;;;;13.13;100.00;100667.00;5107515;28;20066;-84
2023/05/20 03:31:19;;;;;;;5.30;3.88;;;;;;;13.17;100.00;100675.72;5125032;28;20098;-86
2023/05/20 03:33:48;;;;;;;5.90;4.15;;;;;;;13.24;100.00;100680.59;5122920;28;20092;-85
2023/05/20 03:36:15;;;;;;;6.03;4.07;;;;;;;13.20;100.00;100683.53;5105912;28;20055;-86
2023/05/20 03:38:43;;;;;;;5.03;3.35;;;;;;;13.16;100.00;100677.50;5087396;28;20043;-86
2023/05/20 03:41:10;;;;;;;5.28;3.83;;;;;;;13.17;100.00;100673.91;5106198;28;20097;-86
2023/05/20 03:43:37;;;;;;;5.45;4.25;;;;;;;13.16;100.00;100676.63;5105557;28;20059;-83
2023/05/20 03:46:05;;;;;;;8.20;3.70;;;;;;;13.08;100.00;100674.34;5087973;28;20123;-86
2023/05/20 03:48:33;;;;;;;4.78;3.97;;;;;;;13.12;100.00;100696.31;5094878;28;20040;-86
2023/05/20 03:51:00;;;;;;;6.55;3.70;;;;;;;12.94;100.00;100663.56;5115634;28;20061;-86
2023/05/20 03:53:27;;;;;;;5.13;3.72;;;;;;;12.98;100.00;100675.78;5130843;28;20081;-87
2023/05/20 03:55:54;;;;;;;9.85;3.70;;;;;;;13.06;100.00;100689.53;5114491;28;20047;-86
2023/05/20 03:58:22;;;;;;;6.97;3.83;;;;;;;13.10;100.00;100698.19;5127588;28;20131;-86
2023/05/20 04:00:49;;;;;;;4.75;3.47;;;;;;;13.06;100.00;100683.38;5115285;28;20074;-88
2023/05/20 04:03:17;;;;;;;5.32;3.85;;;;;;;13.08;100.00;100689.44;5106821;28;20043;-87
2023/05/20 04:05:45;;;;;;;5.40;3.97;;;;;;;13.15;100.00;100697.06;5104457;28;20387;-87
2023/05/20 04:08:13;;;;;;;8.25;4.20;;;;;;;13.13;100.00;100693.59;5121656;28;20074;-85
2023/05/20 04:10:41;;;;;;;5.25;3.78;;;;;;;13.03;100.00;100676.41;5103563;28;20040;-86
2023/05/20 04:13:10;;;;;;;5.82;4.32;;;;;;;13.10;100.00;100685.75;5122005;28;20069;-86
2023/05/20 04:15:37;;;;;;;5.63;3.75;;;;;;;13.13;100.00;100680.28;5101805;28;20069;-87
2023/05/20 04:18:05;;;;;;;6.55;4.40;;;;;;;13.14;100.00;100665.19;5103926;28;20069;-86
2023/05/20 04:20:34;;;;;;;6.72;3.90;;;;;;;13.26;100.00;100694.69;5110581;28;20043;-86
2023/05/20 04:23:01;;;;;;;7.25;4.35;;;;;;;13.22;100.00;100681.66;5137346;28;20054;-87
2023/05/20 04:25:31;;;;;;;5.25;4.35;;;;;;;13.10;100.00;100666.28;5109967;28;20054;-88
2023/05/20 04:28:00;;;;;;;5.70;4.13;;;;;;;13.23;100.00;100683.34;5107013;28;20044;-87
2023/05/20 04:30:29;;;;;;;4.95;3.95;;;;;;;13.28;100.00;100686.63;5107520;28;20101;-87
2023/05/20 04:32:56;;;;;;;5.32;3.85;;;;;;;13.37;100.00;100698.59;5105835;28;20048;-87
2023/05/20 04:35:24;;;;;;;5.15;3.90;;;;;;;13.38;100.00;100698.47;5123502;28;20045;-87
2023/05/20 04:37:55;;;;;;;6.60;3.80;;;;;;;13.41;100.00;100702.78;5107035;28;20047;-88
2023/05/20 04:40:31;;;;;;;5.97;4.32;;;;;;;13.30;100.00;100674.97;5123561;28;20047;-87
2023/05/20 04:43:02;;;;;;;6.72;4.47;;;;;;;13.51;100.00;100688.06;5105439;28;20057;-85
2023/05/20 04:46:00;;;;;;;6.13;4.20;;;;;;;13.42;100.00;100665.44;5163620;27;20669;-87
2023/05/20 04:48:32;;;;;;;5.22;4.38;;;;;;;13.63;100.00;100687.38;5162729;27;20037;-85
2023/05/20 04:51:01;;;;;;;7.88;4.78;;;;;;;13.68;100.00;100686.19;5178240;27;20426;-86
2023/05/20 04:53:36;;;;;;;6.05;4.20;;;;;;;13.78;100.00;100685.66;5177126;27;20072;-86
2023/05/20 04:56:04;;;;;;;6.70;4.63;;;;;;;13.76;100.00;100692.88;5181726;27;20110;-88
2023/05/20 04:58:35;;;;;;;5.60;4.18;;;;;;;13.78;100.00;100689.19;5152680;27;20043;-87
2023/05/20 05:01:02;;;;;;;6.13;4.40;;;;;;;13.59;100.00;100660.06;5145423;27;20106;-86
2023/05/20 05:03:35;;;;;;;4.93;4.43;;;;;;;13.81;100.00;100686.38;5145352;27;20432;-88
2023/05/20 05:06:02;;;;;;;4.80;3.92;;;;;;;13.84;100.00;100682.69;5143799;27;20046;-88
2023/05/20 05:08:33;;;;;;;8.35;4.60;;;;;;;13.93;100.00;100679.50;5144577;27;20074;-86
2023/05/20 05:11:10;;;;;;;6.78;4.90;;;;;;;13.92;100.00;100659.13;5144760;27;20372;-87
2023/05/20 05:13:50;;;;;;;5.38;4.63;;;;;;;14.09;100.00;100672.34;5142030;27;20568;-85
2023/05/20 05:16:19;;;;;;;7.07;4.82;;;;;;;14.08;100.00;100641.34;5148456;27;20068;-85
2023/05/20 05:18:48;;;;;;;6.80;4.70;;;;;;;14.35;100.00;100671.69;5142922;27;20416;-87
2023/05/20 05:21:15;;;;;;;4.88;4.38;;;;;;;14.41;100.00;100675.00;5141819;27;20099;-85
2023/05/20 05:23:42;;;;;;;8.60;5.07;;;;;;;14.43;100.00;100670.44;5158687;27;20074;-86
2023/05/20 05:26:10;;;;;;;7.78;5.22;;;;;;;14.51;100.00;100666.34;5123011;27;20066;-86
2023/05/20 05:28:40;;;;;;;6.45;4.55;;;;;;;14.64;100.00;100666.50;5160595;27;20130;-87
2023/05/20 05:31:23;;;;;;;6.88;4.80;;;;;;;14.83;100.00;100666.25;5173129;27;20043;-88
2023/05/20 05:33:49;;;;;;;6.25;4.55;;;;;;;14.91;100.00;100672.84;5125000;27;20070;-86
2023/05/20 05:36:19;;;;;;;8.25;4.50;;;;;;;15.04;100.00;100663.16;5140530;27;20134;-85
2023/05/20 05:38:51;;;;;;;5.85;5.00;;;;;;;14.92;100.00;100647.91;5142821;27;20095;-86
2023/05/20 05:41:20;;;;;;;7.80;4.90;;;;;;;14.99;100.00;100654.56;5143474;27;20112;-86
2023/05/20 05:43:47;;;;;;;8.93;5.10;;;;;;;14.96;100.00;100657.41;5126567;27;20120;-86
2023/05/20 05:46:14;;;;;;;8.68;5.28;;;;;;;14.90;100.00;100646.28;5142963;27;20075;-85
2023/05/20 05:48:44;;;;;;;7.07;5.18;;;;;;;14.87;100.00;100655.31;5163031;27;20045;-85
2023/05/20 05:51:12;;;;;;;6.70;5.50;;;;;;;14.93;100.00;100662.97;5145304;27;20125;-86
2023/05/20 05:53:41;;;;;;;7.18;4.65;;;;;;;14.87;100.00;100638.47;5145031;27;20076;-86
2023/05/20 05:56:11;;;;;;;6.65;5.07;;;;;;;15.08;100.00;100651.34;5139951;27;20095;-86
2023/05/20 05:58:41;;;;;;;7.85;5.03;;;;;;;15.19;100.00;100652.50;5137413;27;20043;-87
2023/05/20 06:01:08;;;;;;;6.35;5.13;;;;;;;15.27;99.81;100660.88;5152825;27;20070;-87
2023/05/20 06:03:51;;;;;;;5.75;5.03;;;;;;;15.26;98.52;100648.50;5132827;27;20039;-85
2023/05/20 06:06:22;;;;;;;7.22;5.97;;;;;;;15.28;98.25;100650.09;5130675;27;20043;-85
2023/05/20 06:08:49;;;;;;;9.63;5.82;;;;;;;15.09;98.71;100639.75;5115009;27;20054;-86
2023/05/20 06:11:16;;;;;;;6.82;5.88;;;;;;;15.29;99.42;100666.97;5146797;27;20043;-86
2023/05/20 06:13:44;;;;;;;6.47;4.90;;;;;;;15.38;100.00;100661.06;5147952;27;20039;-85
2023/05/20 06:16:13;;;;;;;6.18;5.43;;;;;;;15.56;98.31;100659.09;5129918;27;20054;-86
2023/05/20 06:18:52;;;;;;;8.35;5.43;;;;;;;15.70;96.84;100654.59;5130483;27;20047;-86
2023/05/20 06:21:19;;;;;;;6.88;5.43;;;;;;;15.57;94.94;100613.63;5137191;27;20062;-84
2023/05/20 06:23:50;;;;;;;8.10;6.00;;;;;;;15.74;95.22;100657.94;5139878;27;20031;-84
2023/05/20 06:26:17;;;;;;;6.63;5.35;;;;;;;15.68;96.44;100651.16;5143649;27;20042;-84
2023/05/20 06:28:46;;;;;;;9.18;6.03;;;;;;;15.53;96.88;100649.44;5143569;27;20039;-85
2023/05/20 06:31:18;;;;;;;6.78;5.95;;;;;;;15.40;98.71;100645.81;5149914;27;20115;-84
2023/05/20 06:33:45;;;;;;;8.55;5.78;;;;;;;15.40;99.00;100657.34;5115365;28;20078;-84
2023/05/20 06:36:16;;;;;;;9.05;6.03;;;;;;;15.28;100.00;100641.22;5125207;28;20059;-86
2023/05/20 06:38:44;;;;;;;7.50;6.68;;;;;;;15.36;99.71;100641.63;5122190;28;20096;-86
2023/05/20 06:41:12;;;;;;;8.75;6.47;;;;;;;15.40;99.17;100651.16;5124585;28;20361;-85
2023/05/20 06:43:39;;;;;;;9.02;6.25;;;;;;;15.37;99.83;100638.88;5106989;28;20047;-86
2023/05/20 06:46:14;;;;;;;7.30;6.47;;;;;;;15.42;99.54;100650.09;5107023;28;20052;-86
2023/05/20 06:48:44;;;;;;;7.32;6.03;;;;;;;15.44;100.00;100639.31;5106309;28;20112;-86
2023/05/20 06:51:13;;;;;;;9.07;6.22;;;;;;;15.53;100.00;100651.25;5105138;28;20130;-86
2023/05/20 06:53:40;;;;;;;8.27;6.57;;;;;;;15.58;99.73;100651.84;5107038;28;20044;-84
2023/05/20 06:56:10;;;;;;;8.27;6.30;;;;;;;15.50;98.46;100636.28;5108380;28;20085;-85
2023/05/20 06:58:51;;;;;;;7.13;5.88;;;;;;;15.53;99.47;100620.06;5110270;28;20059;-84
2023/05/20 07:01:20;;;;;;;7.07;6.30;;;;;;;15.82;98.05;100650.25;5111134;28;20074;-85
2023/05/20 07:03:48;;;;;;;6.80;6.00;;;;;;;15.90;97.09;100634.59;5112190;28;20039;-86
2023/05/20 07:06:14;;;;;;;7.65;6.82;;;;;;;15.99;96.77;100638.50;5111287;28;20414;-84
2023/05/20 07:08:47;;;;;;;7.22;6.25;;;;;;;16.01;96.52;100618.75;5125040;28;20123;-85
2023/05/20 07:11:18;;;;;;;9.10;7.18;;;;;;;16.24;93.96;100649.25;5110264;28;20059;-84
2023/05/20 07:13:49;;;;;;;8.10;7.10;;;;;;;16.20;94.15;100641.56;5072708;28;20066;-83
2023/05/20 07:16:19;;;;;;;8.13;6.93;;;;;;;16.24;94.30;100643.91;5109372;28;20395;-85
2023/05/20 07:18:54;;;;;;;7.57;6.75;;;;;;;16.29;93.15;100644.47;5125828;28;20134;-84
2023/05/20 07:21:35;;;;;;;9.50;6.78;;;;;;;16.18;93.06;100628.31;5122819;28;20043;-85
2023/05/20 07:24:05;;;;;;;10.63;7.45;;;;;;;15.74;93.36;100575.16;5106700;28;20046;-86
2023/05/20 07:26:36;;;;;;;8.47;7.50;;;;;;;15.99;94.39;100630.47;5102012;28;20055;-86
2023/05/20 07:29:18;;;;;;;10.20;7.18;;;;;;;16.20;95.92;100636.22;5106318;28;20075;-85
2023/05/20 07:32:04;;;;;;;12.23;7.60;;;;;;;16.39;94.12;100629.53;5106352;28;20494;-84
2023/05/20 07:34:34;;;;;;;8.90;7.05;;;;;;;16.59;92.77;100630.84;5104988;28;20068;-84
2023/05/20 07:37:03;;;;;;;10.52;7.63;;;;;;;16.65;91.16;100627.81;5108941;28;20108;-83
2023/05/20 07:39:35;;;;;;;10.18;7.47;;;;;;;16.80;91.30;100625.91;5130614;28;20054;-85
2023/05/20 07:42:27;;;;;;;9.93;7.68;;;;;;;17.05;90.30;100611.66;5066637;28;20087;-84
2023/05/20 07:45:18;;;;;;;11.57;8.52;;;;;;;17.17;85.74;100600.94;5087401;28;20048;-85
2023/05/20 07:47:45;;;;;;;12.38;7.65;;;;;;;17.24;85.37;100592.47;5069165;28;20103;-85
2023/05/20 07:50:16;;;;;;;10.00;8.25;;;;;;;17.17;85.13;100600.94;5061766;28;20040;-85
2023/05/20 07:53:02;;;;;;;9.18;7.93;;;;;;;17.05;85.22;100566.16;5066873;28;20158;-85
2023/05/20 07:55:32;;;;;;;11.13;8.32;;;;;;;17.03;86.19;100586.81;5060766;28;20071;-85
2023/05/20 07:58:00;;;;;;;;;;;;;;;17.07;86.85;100586.50;5064944;28;20119;-85
2023/05/20 08:00:44;;;;;;;12.27;8.93;;;;;;;17.22;86.62;100592.59;5064415;28;20373;-85
2023/05/20 08:03:14;;;;;;;9.57;8.57;;;;;;;17.16;85.67;100583.16;5064149;28;20370;-85
2023/05/20 08:05:45;;;;;;;9.23;8.32;;;;;;;17.23;88.14;100585.41;5073352;28;20134;-85
2023/05/20 08:08:13;;;;;;;9.35;8.23;;;;;;;17.33;86.28;100586.47;5079805;28;20050;-86
2023/05/20 08:10:43;;;;;;;10.20;8.13;;;;;;;17.70;85.43;100596.25;5064185;28;20095;-86
2023/05/20 08:13:27;;;;;;;9.25;8.35;;;;;;;18.14;83.98;100590.25;5080464;28;20076;-84
2023/05/20 08:15:54;;;;;;;10.52;8.73;;;;;;;18.11;79.30;100554.78;5063109;28;20044;-86
2023/05/20 08:18:38;;;;;;;12.65;8.85;;;;;;;18.57;79.36;100595.06;5065534;28;20076;-84
2023/05/20 08:21:09;;;;;;;8.50;7.68;;;;;;;18.63;77.91;100577.66;5077692;28;20127;-84
2023/05/20 08:23:35;;;;;;;12.27;8.73;;;;;;;18.58;75.18;100586.00;5069522;28;20058;-84
2023/05/20 08:26:18;;;;;;;9.65;8.73;;;;;;;18.67;78.78;100587.16;5101260;28;20108;-85
2023/05/20 08:28:45;;;;;;;14.52;8.35;;;;;;;18.77;78.37;100591.69;5123264;28;20488;-85
2023/05/20 08:31:26;;;;;;;11.07;8.80;;;;;;;18.68;74.53;100595.09;5116898;28;20036;-86
2023/05/20 08:34:07;;;;;;;10.80;8.30;;;;;;;18.71;75.29;100600.25;5122159;28;20043;-85
2023/05/20 08:36:41;;;;;;;11.63;8.20;;;;;;;18.71;75.50;100588.66;5103984;28;20043;-85
2023/05/20 08:39:10;;;;;;;10.63;9.17;;;;;;;18.79;75.55;100560.25;5121025;28;20052;-86
2023/05/20 08:41:48;;;;;;;9.30;8.35;;;;;;;19.03;74.84;100587.00;5089478;28;20469;-85
2023/05/20 08:44:23;;;;;;;11.00;7.95;;;;;;;19.21;75.29;100566.72;5122557;28;20048;-85
2023/05/20 08:46:55;;;;;;;9.57;8.68;;;;;;;19.41;72.41;100557.06;5120910;28;20044;-85
2023/05/20 08:49:31;;;;;;;10.63;8.37;;;;;;;19.59;71.98;100569.03;5103891;28;20048;-85
2023/05/20 08:52:02;;;;;;;10.63;9.10;;;;;;;19.36;72.08;100579.91;5107898;28;20052;-84
2023/05/20 08:54:44;;;;;;;9.48;8.48;;;;;;;19.09;73.13;100583.78;5122995;28;20050;-85
2023/05/20 08:57:27;;;;;;;10.68;8.95;;;;;;;18.79;73.58;100540.59;5106550;28;20458;-86
2023/05/20 08:59:56;;;;;;;10.63;9.10;;;;;;;19.00;75.92;100584.53;5119965;28;20051;-85
2023/05/20 09:02:40;;;;;;;13.77;8.75;;;;;;;18.95;76.68;100584.03;5121314;28;20035;-85
2023/05/20 09:05:12;;;;;;;10.00;9.00;;;;;;;18.94;76.20;100590.38;5105166;28;20435;-85
2023/05/20 09:07:42;;;;;;;9.98;8.50;;;;;;;19.02;75.78;100587.09;5122516;28;20073;-85
2023/05/20 09:10:30;;;;;;;11.00;9.23;;;;;;;19.15;73.50;100569.91;5121660;28;20103;-85
2023/05/20 09:13:11;;;;;;;11.98;8.40;;;;;;;19.52;73.07;100580.38;5125602;28;20054;-86
2023/05/20 09:15:42;;;;;;;9.77;8.00;;;;;;;19.65;69.46;100578.41;5091209;28;20374;-86
2023/05/20 09:18:16;;;;;;;9.40;8.50;;;;;;;19.75;69.78;100583.88;5106237;28;20044;-85
2023/05/20 09:21:25;;;;;;;11.02;9.02;;;;;;;19.58;70.23;100561.94;5108362;28;20048;-85
2023/05/20 09:24:01;;;;;;;11.85;9.02;;;;;;;19.55;70.43;100580.13;5104953;28;20043;-85
2023/05/20 09:26:41;;;;;;;9.57;8.65;;;;;;;19.23;72.13;100548.66;5107682;28;20109;-87
2023/05/20 09:29:10;;;;;;;12.80;9.63;;;;;;;19.24;72.77;100585.25;5101560;28;20065;-86
2023/05/20 09:32:12;;;;;;;10.55;8.38;;;;;;;19.14;74.91;100570.88;5113765;28;20047;-86
2023/05/20 09:34:48;;;;;;;10.43;8.95;;;;;;;19.36;75.24;100569.16;5126015;28;20044;-86
2023/05/20 09:37:33;;;;;;;11.23;8.75;;;;;;;19.52;72.60;100575.84;5109702;28;20099;-85
2023/05/20 09:40:16;;;;;;;9.65;8.55;;;;;;;19.31;74.00;100555.25;5108763;28;20078;-87
2023/05/20 09:43:10;;;;;;;10.45;8.70;;;;;;;19.32;73.55;100568.53;5124277;28;20067;-85
2023/05/20 09:45:40;;;;;;;10.20;9.10;;;;;;;19.40;72.70;100576.81;5120516;28;20078;-85
2023/05/20 09:48:17;;;;;;;9.88;8.63;;;;;;;19.36;73.68;100569.97;5102829;28;20111;-85
2023/05/20 09:51:03;;;;;;;9.73;8.50;;;;;;;19.20;73.42;100570.38;5106215;28;20055;-86
2023/05/20 09:53:42;;;;;;;9.98;8.93;;;;;;;19.16;75.13;100562.69;5108318;28;20116;-85
2023/05/20 09:56:28;;;;;;;11.18;8.75;;;;;;;19.34;75.43;100555.00;5107911;28;20040;-85
2023/05/20 09:59:04;;;;;;;10.10;8.80;;;;;;;19.60;72.69;100535.81;5111399;28;20035;-86
2023/05/20 10:01:35;;;;;;;10.77;9.48;;;;;;;19.68;69.06;100561.16;5107095;28;20071;-86
2023/05/20 10:04:07;;;;;;;11.43;9.77;;;;;;;19.58;69.71;100543.13;5105089;28;20048;-86
2023/05/20 10:07:07;;;;;;;10.57;8.95;;;;;;;19.47;68.85;100550.34;5107296;28;20101;-84
2023/05/20 10:10:18;;;;;;;9.70;8.70;;;;;;;19.60;69.00;100569.88;5105554;28;20081;-86
2023/05/20 10:13:16;;;;;;;9.80;8.80;;;;;;;19.57;69.65;100562.91;5104477;28;20043;-86
2023/05/20 10:16:18;;;;;;;10.82;9.02;;;;;;;19.71;68.53;100553.72;5104459;28;20082;-85
2023/05/20 10:18:57;;;;;;;11.85;9.98;;;;;;;19.78;67.54;100554.06;5101667;28;20067;-85
2023/05/20 10:21:39;;;;;;;12.02;9.38;;;;;;;19.82;67.54;100564.47;5121449;28;20150;-86
2023/05/20 10:24:10;;;;;;;11.57;8.77;;;;;;;19.73;67.96;100554.44;5106945;28;20124;-85
2023/05/20 10:26:41;;;;;;;10.75;9.02;;;;;;;19.60;67.42;100530.44;5117784;28;20040;-85
2023/05/20 10:29:15;;;;;;;10.98;9.18;;;;;;;19.63;67.67;100512.34;5110442;28;20044;-85
2023/05/20 10:31:50;;;;;;;11.80;9.38;;;;;;;20.10;65.07;100554.09;5103700;28;20028;-85
2023/05/20 10:34:49;;;;;;;10.82;9.00;;;;;;;20.08;66.29;100537.22;5103735;28;20410;-86
2023/05/20 10:37:47;;;;;;;13.45;9.18;;;;;;;20.10;65.66;100532.56;5103450;28;20051;-85
2023/05/20 10:40:21;;;;;;;10.73;8.48;;;;;;;20.16;65.19;100526.66;5101582;28;20048;-86
2023/05/20 10:42:48;;;;;;;10.65;8.70;;;;;;;20.19;64.78;100513.81;5101155;28;20044;-86
2023/05/20 10:45:37;;;;;;;11.40;9.07;;;;;;;20.39;64.63;100541.75;5101205;28;20135;-85
2023/05/20 10:48:05;;;;;;;10.43;9.32;;;;;;;20.33;63.62;100534.16;5102475;28;20072;-86
2023/05/20 10:50:35;;;;;;;9.70;8.68;;;;;;;20.36;65.51;100523.16;5101583;28;20069;-86
2023/05/20 10:53:14;;;;;;;11.63;9.10;;;;;;;20.12;64.22;100519.84;5102643;28;20120;-85
2023/05/20 10:56:01;;;;;;;10.02;8.90;;;;;;;20.16;65.07;100527.50;5101971;28;20410;-86
2023/05/20 10:58:39;;;;;;;10.65;9.13;;;;;;;19.90;65.68;100504.69;5102427;28;20530;-86
2023/05/20 11:01:06;;;;;;;9.85;8.85;;;;;;;19.99;66.95;100501.19;5119539;28;20048;-85
2023/05/20 11:03:35;;;;;;;9.73;8.77;;;;;;;20.15;65.64;100504.28;5102547;28;20071;-87
2023/05/20 11:06:15;;;;;;;10.70;9.25;;;;;;;20.28;64.05;100504.97;5102455;28;20055;-85
2023/05/20 11:09:20;;;;;;;12.30;9.80;;;;;;;20.28;63.55;100526.50;5102588;28;20039;-86
2023/05/20 11:11:57;;;;;;;9.93;8.93;;;;;;;20.19;64.83;100507.59;5102742;28;20107;-85
2023/05/20 11:14:24;;;;;;;10.23;9.23;;;;;;;20.22;64.04;100502.81;5104490;28;20070;-86
2023/05/20 11:16:58;;;;;;;9.65;8.65;;;;;;;20.39;64.71;100504.06;5103553;28;20036;-86
2023/05/20 11:19:40;;;;;;;10.02;9.02;;;;;;;20.46;63.46;100502.53;5103772;28;20079;-85
2023/05/20 11:22:10;;;;;;;11.40;9.23;;;;;;;20.09;62.22;100474.41;5102899;28;20065;-86
2023/05/20 11:24:55;;;;;;;9.88;8.88;;;;;;;20.14;63.26;100491.00;5089356;28;20093;-87
2023/05/20 11:27:33;;;;;;;9.48;8.52;;;;;;;20.48;64.46;100497.88;5105618;28;20101;-86
2023/05/20 11:30:17;;;;;;;9.15;8.25;;;;;;;20.57;60.80;100477.44;5104085;28;20048;-86
2023/05/20 11:33:01;;;;;;;9.27;8.38;;;;;;;20.61;60.20;100495.00;5104459;28;20070;-85
2023/05/20 11:35:56;;;;;;;9.93;8.50;;;;;;;20.37;60.51;100487.22;5107915;28;20040;-85
2023/05/20 11:38:23;;;;;;;10.77;8.30;;;;;;;20.20;62.02;100490.47;5104690;28;20089;-86
2023/05/20 11:40:54;;;;;;;10.27;9.10;;;;;;;20.16;62.50;100502.47;5087850;28;20120;-86
2023/05/20 11:43:25;;;;;;;8.52;7.63;;;;;;;19.98;64.03;100480.72;5134624;27;20044;-85
2023/05/20 11:46:08;;;;;;;10.02;8.13;;;;;;;20.29;62.69;100487.88;5090679;28;20107;-86